Terminal Aerodrome Forecast
Issued by NWS Twin Cities, MN

Home | Current Version | Previous Version | Graphics & Text | Print | Product List | Glossary On
Versions: 1 2 3 4 5 6 7 8 9 10 11 12 13 14 15 16 17 18 19 20 21 22 23 24 25 26 27 28 29 30 31
396
FTUS43 KMPX 281457 AAC
TAFMSP
TAF AMD
KMSP 281457Z 2815/2918 13007KT P6SM SCT005 BKN015
      TEMPO 2815/2816 5SM BR BKN005
     FM281600 15010KT P6SM SCT035 BKN250
     FM290900 14006KT P6SM SCT025 BKN250
      TEMPO 2909/2913 4SM BR=

USA.gov is the U.S. government's official web portal to all federal, state and local government web resources and services.